createdAt,value
2023-03-16T00:01:50.110Z,3.45
2023-03-16T00:04:39.124Z,4.20
2023-03-16T00:07:27.601Z,3.63
2023-03-16T00:10:16.145Z,3.60
2023-03-16T00:13:04.652Z,3.30
2023-03-16T00:15:55.948Z,2.83
2023-03-16T00:18:44.509Z,2.97
2023-03-16T00:21:35.257Z,2.83
2023-03-16T00:24:25.014Z,4.30
2023-03-16T00:27:15.540Z,2.30
2023-03-16T00:30:04.132Z,2.40
2023-03-16T00:32:54.099Z,3.20
2023-03-16T00:35:50.369Z,4.78
2023-03-16T00:38:45.540Z,3.53
2023-03-16T00:41:37.925Z,3.30
2023-03-16T00:44:26.520Z,2.45
2023-03-16T00:47:15.501Z,2.65
2023-03-16T00:50:05.893Z,3.13
2023-03-16T00:52:54.373Z,2.37
2023-03-16T00:55:43.095Z,3.20
2023-03-16T00:58:35.707Z,2.20
2023-03-16T01:01:24.441Z,3.50
2023-03-16T01:04:12.960Z,1.90
2023-03-16T01:07:03.113Z,2.60
2023-03-16T01:09:51.534Z,2.33
2023-03-16T01:12:40.079Z,2.35
2023-03-16T01:15:28.554Z,2.75
2023-03-16T01:18:17.016Z,2.83
2023-03-16T01:21:07.898Z,2.00
2023-03-16T01:23:57.927Z,2.95
2023-03-16T01:26:46.429Z,2.85
2023-03-16T01:29:35.582Z,2.20
2023-03-16T01:32:24.106Z,2.17
2023-03-16T01:35:12.608Z,2.45
2023-03-16T01:38:01.070Z,2.03
2023-03-16T01:40:51.645Z,2.33
2023-03-16T01:43:41.315Z,3.37
2023-03-16T01:46:31.040Z,2.60
2023-03-16T01:49:23.842Z,3.88
2023-03-16T01:52:15.864Z,2.78
2023-03-16T01:55:08.086Z,3.70
2023-03-16T01:57:58.018Z,2.63
2023-03-16T02:00:46.433Z,2.65
2023-03-16T02:03:35.726Z,3.10
2023-03-16T02:06:24.239Z,3.00
2023-03-16T02:09:13.286Z,2.53
2023-03-16T02:12:02.432Z,3.38
2023-03-16T02:14:52.795Z,3.55
2023-03-16T02:17:42.588Z,3.10
2023-03-16T02:20:39.314Z,3.13
2023-03-16T02:23:28.506Z,3.20
2023-03-16T02:26:27.293Z,3.58
2023-03-16T02:29:29.694Z,3.30
2023-03-16T02:32:20.699Z,2.40
2023-03-16T02:35:11.071Z,3.40
2023-03-16T02:37:59.558Z,2.83
2023-03-16T02:40:59.002Z,3.42
2023-03-16T02:43:52.294Z,3.30
2023-03-16T02:46:43.498Z,2.95
2023-03-16T02:49:37.521Z,2.47
2023-03-16T02:52:26.068Z,2.20
2023-03-16T02:55:14.559Z,2.97
2023-03-16T02:58:03.309Z,2.20
2023-03-16T03:00:52.045Z,2.13
2023-03-16T03:03:40.513Z,2.20
2023-03-16T03:06:30.507Z,2.17
2023-03-16T03:09:19.429Z,1.85
2023-03-16T03:12:07.957Z,1.85
2023-03-16T03:14:57.309Z,2.40
2023-03-16T03:17:46.087Z,3.28
2023-03-16T03:20:34.729Z,2.67
2023-03-16T03:23:24.942Z,1.98
2023-03-16T03:26:14.843Z,1.40
2023-03-16T03:29:03.557Z,1.85
2023-03-16T03:31:52.290Z,2.67
2023-03-16T03:34:42.493Z,2.28
2023-03-16T03:37:30.953Z,1.67
2023-03-16T03:40:21.700Z,2.03
2023-03-16T03:43:10.113Z,1.63
2023-03-16T03:45:59.041Z,1.60
2023-03-16T03:48:47.599Z,2.05
2023-03-16T03:51:36.088Z,1.52
2023-03-16T03:54:24.547Z,1.45
2023-03-16T03:57:14.788Z,1.20
2023-03-16T04:00:03.497Z,2.35
2023-03-16T04:02:52.135Z,1.95
2023-03-16T04:05:40.784Z,1.50
2023-03-16T04:08:29.258Z,2.17
2023-03-16T04:11:17.751Z,2.05
2023-03-16T04:14:07.788Z,1.85
2023-03-16T04:16:56.427Z,2.35
2023-03-16T04:19:45.239Z,2.38
2023-03-16T04:22:34.156Z,1.65
2023-03-16T04:25:22.676Z,1.63
2023-03-16T04:28:11.125Z,2.22
2023-03-16T04:31:05.432Z,2.95
2023-03-16T04:33:54.627Z,2.15
2023-03-16T04:36:43.440Z,2.28
2023-03-16T04:39:31.962Z,2.38
2023-03-16T04:42:20.419Z,2.33
2023-03-16T04:45:09.934Z,2.03
2023-03-16T04:47:59.898Z,3.58
2023-03-16T04:50:50.539Z,1.98
2023-03-16T04:53:38.963Z,2.55
2023-03-16T04:56:27.421Z,2.33
2023-03-16T04:59:15.887Z,2.72
2023-03-16T05:02:04.413Z,2.42
2023-03-16T05:04:55.172Z,2.80
2023-03-16T05:07:43.729Z,2.13
2023-03-16T05:10:32.110Z,2.40
2023-03-16T05:13:20.924Z,3.15
2023-03-16T05:16:09.477Z,3.13
2023-03-16T05:18:59.507Z,2.25
2023-03-16T05:21:49.393Z,2.00
2023-03-16T05:24:38.262Z,3.00
2023-03-16T05:27:26.763Z,3.40
2023-03-16T05:30:17.445Z,2.13
2023-03-16T05:33:06.028Z,3.08
2023-03-16T05:35:54.671Z,2.50
2023-03-16T05:38:45.635Z,3.10
2023-03-16T05:41:34.220Z,3.03
2023-03-16T05:44:22.735Z,2.50
2023-03-16T05:47:11.366Z,3.00
2023-03-16T05:50:00.160Z,4.07
2023-03-16T05:52:48.787Z,3.80
2023-03-16T05:55:38.919Z,2.45
2023-03-16T05:58:27.396Z,3.03
2023-03-16T06:01:15.814Z,3.03
2023-03-16T06:04:05.592Z,3.05
2023-03-16T06:06:54.123Z,3.80
2023-03-16T06:09:42.822Z,2.95
2023-03-16T06:12:32.773Z,3.25
2023-03-16T06:15:24.949Z,3.30
2023-03-16T06:18:13.403Z,4.70
2023-03-16T06:21:01.905Z,4.15
2023-03-16T06:23:51.048Z,3.60
2023-03-16T06:26:39.635Z,5.43
2023-03-16T06:29:29.712Z,5.53
2023-03-16T06:32:18.233Z,4.03
2023-03-16T06:35:07.541Z,5.80
2023-03-16T06:37:55.994Z,5.43
2023-03-16T06:40:44.756Z,4.50
2023-03-16T06:43:33.234Z,3.47
2023-03-16T06:46:23.135Z,5.10
2023-03-16T06:49:12.201Z,4.00
2023-03-16T06:52:01.889Z,5.03
2023-03-16T06:54:51.066Z,3.58
2023-03-16T06:57:39.772Z,3.63
2023-03-16T07:00:28.756Z,3.33
2023-03-16T07:03:19.502Z,4.05
2023-03-16T07:06:08.837Z,3.95
2023-03-16T07:08:57.576Z,4.50
2023-03-16T07:11:46.344Z,2.85
2023-03-16T07:14:34.890Z,2.75
2023-03-16T07:17:23.618Z,2.85
2023-03-16T07:20:14.668Z,2.92
2023-03-16T07:23:03.069Z,2.95
2023-03-16T07:25:52.084Z,6.05
2023-03-16T07:28:40.700Z,3.10
2023-03-16T07:31:29.197Z,3.72
2023-03-16T07:34:18.284Z,3.40
2023-03-16T07:37:08.985Z,3.13
2023-03-16T07:39:57.489Z,3.20
2023-03-16T07:42:45.965Z,3.47
2023-03-16T07:45:34.539Z,8.65
2023-03-16T07:48:22.957Z,4.70
2023-03-16T07:51:11.729Z,6.32
2023-03-16T07:54:01.526Z,4.70
2023-03-16T07:56:50.091Z,4.93
2023-03-16T07:59:38.681Z,4.25
2023-03-16T08:02:27.270Z,3.25
2023-03-16T08:05:16.269Z,2.85
2023-03-16T08:08:04.790Z,3.13
2023-03-16T08:10:56.605Z,4.20
2023-03-16T08:13:46.980Z,3.50
2023-03-16T08:16:35.439Z,3.28
2023-03-16T08:19:25.096Z,2.63
2023-03-16T08:22:13.732Z,2.15
2023-03-16T08:25:03.010Z,2.78
2023-03-16T08:27:53.151Z,4.70
2023-03-16T08:30:46.970Z,2.58
2023-03-16T08:33:36.702Z,3.60
2023-03-16T08:36:25.473Z,3.00
2023-03-16T08:39:13.954Z,10.15
2023-03-16T08:42:02.686Z,2.97
2023-03-16T08:44:55.288Z,2.50
2023-03-16T08:47:43.937Z,2.07
2023-03-16T08:50:32.409Z,2.72
2023-03-16T08:53:21.046Z,3.30
2023-03-16T08:56:12.387Z,3.50
2023-03-16T08:59:00.878Z,2.60
2023-03-16T09:01:50.743Z,3.28
2023-03-16T09:04:39.285Z,2.10
2023-03-16T09:07:28.270Z,2.37
2023-03-16T09:10:17.079Z,3.63
2023-03-16T09:13:05.493Z,3.60
2023-03-16T09:15:54.287Z,4.10
2023-03-16T09:18:44.517Z,3.55
2023-03-16T09:21:35.284Z,3.58
2023-03-16T09:24:24.573Z,3.17
2023-03-16T09:27:13.237Z,3.75
2023-03-16T09:30:02.641Z,5.45
2023-03-16T09:32:51.206Z,4.10
2023-03-16T09:35:41.079Z,7.75
2023-03-16T09:38:30.398Z,4.30
2023-03-16T09:41:32.954Z,3.45
2023-03-16T09:44:42.573Z,3.97
2023-03-16T09:47:34.454Z,3.95
2023-03-16T09:50:30.349Z,5.10
2023-03-16T09:53:31.365Z,4.88
2023-03-16T09:56:28.321Z,3.88
2023-03-16T09:59:19.100Z,4.50
2023-03-16T10:02:30.005Z,4.20
2023-03-16T10:05:21.801Z,3.30
2023-03-16T10:08:15.249Z,3.13
2023-03-16T10:11:21.246Z,3.50
2023-03-16T10:14:19.092Z,2.90
2023-03-16T10:17:14.798Z,3.22
2023-03-16T10:20:09.141Z,3.00
2023-03-16T10:22:59.442Z,2.78
2023-03-16T10:25:49.623Z,3.20
2023-03-16T10:28:39.624Z,4.22
2023-03-16T10:31:29.440Z,3.53
2023-03-16T10:34:18.020Z,3.22
2023-03-16T10:37:09.215Z,3.53
2023-03-16T10:40:00.726Z,2.90
2023-03-16T10:42:49.327Z,3.78
2023-03-16T10:45:39.431Z,4.35
2023-03-16T10:48:28.913Z,3.40
2023-03-16T10:51:26.505Z,3.30
2023-03-16T10:54:19.874Z,3.42
2023-03-16T10:57:16.803Z,5.57
2023-03-16T11:00:13.019Z,4.83
2023-03-16T11:03:04.754Z,5.30
2023-03-16T11:06:02.297Z,2.78
2023-03-16T11:08:52.889Z,3.97
2023-03-16T11:11:48.638Z,7.32
2023-03-16T11:14:37.489Z,4.75
2023-03-16T11:17:35.981Z,2.22
2023-03-16T11:20:28.791Z,3.78
2023-03-16T11:23:19.378Z,2.43
2023-03-16T11:26:17.592Z,2.25
2023-03-16T11:29:14.731Z,2.88
2023-03-16T11:32:07.366Z,2.95
2023-03-16T11:34:55.803Z,2.35
2023-03-16T11:37:55.685Z,1.45
2023-03-16T11:40:58.527Z,2.47
2023-03-16T11:43:53.614Z,1.38
2023-03-16T11:46:45.816Z,2.03
2023-03-16T11:49:48.519Z,2.13
2023-03-16T11:52:46.964Z,1.38
2023-03-16T11:55:44.450Z,1.30
2023-03-16T11:58:48.345Z,1.35
2023-03-16T12:02:00.143Z,2.00
2023-03-16T12:04:59.788Z,1.15
2023-03-16T12:07:59.423Z,1.92
2023-03-16T12:10:55.339Z,2.10
2023-03-16T12:14:00.579Z,2.95
2023-03-16T12:16:55.821Z,1.17
2023-03-16T12:19:49.068Z,1.20
2023-03-16T12:22:41.007Z,1.10
2023-03-16T12:25:33.388Z,1.25
2023-03-16T12:28:29.096Z,1.33
2023-03-16T12:31:21.778Z,2.53
2023-03-16T12:34:24.287Z,1.08
2023-03-16T12:37:24.047Z,2.75
2023-03-16T12:40:25.848Z,2.60
2023-03-16T12:43:30.419Z,1.92
2023-03-16T12:46:25.441Z,2.15
2023-03-16T12:49:14.761Z,2.08
2023-03-16T12:52:05.796Z,2.95
2023-03-16T12:55:06.968Z,2.22
2023-03-16T12:58:02.086Z,2.00
2023-03-16T13:00:59.504Z,1.70
2023-03-16T13:03:51.317Z,2.30
2023-03-16T13:06:45.671Z,1.67
2023-03-16T13:09:42.124Z,2.40
2023-03-16T13:12:36.964Z,2.10
2023-03-16T13:15:31.586Z,2.20
2023-03-16T13:18:25.414Z,1.73
2023-03-16T13:21:20.387Z,2.43
2023-03-16T13:24:26.539Z,1.90
2023-03-16T13:27:23.254Z,1.92
2023-03-16T13:30:20.483Z,2.25
2023-03-16T13:33:18.124Z,2.00
2023-03-16T13:36:09.129Z,1.67
2023-03-16T13:38:58.712Z,1.88
2023-03-16T13:41:57.254Z,1.90
2023-03-16T13:44:45.960Z,1.75
2023-03-16T13:47:34.412Z,2.05
2023-03-16T13:50:23.655Z,2.30
2023-03-16T13:53:18.582Z,2.22
2023-03-16T13:56:07.710Z,1.95
2023-03-16T13:58:59.234Z,2.57
2023-03-16T14:01:48.614Z,4.78
2023-03-16T14:04:37.568Z,2.97
2023-03-16T14:07:27.889Z,2.40
2023-03-16T14:10:18.360Z,1.60
2023-03-16T14:13:10.837Z,2.30
2023-03-16T14:16:01.586Z,1.75
2023-03-16T14:18:50.890Z,2.72
2023-03-16T14:21:39.682Z,2.45
2023-03-16T14:24:32.288Z,3.08
2023-03-16T14:27:24.373Z,3.88
2023-03-16T14:30:18.282Z,2.53
2023-03-16T14:33:09.097Z,2.30
2023-03-16T14:35:59.076Z,1.40
2023-03-16T14:38:48.476Z,2.13
2023-03-16T14:41:38.367Z,2.07
2023-03-16T14:44:32.558Z,1.88
2023-03-16T14:47:26.180Z,2.35
2023-03-16T14:50:18.842Z,2.42
2023-03-16T14:53:07.696Z,2.58
2023-03-16T14:55:56.605Z,1.60
2023-03-16T14:58:45.351Z,2.05
2023-03-16T15:01:35.467Z,2.33
2023-03-16T15:04:28.909Z,3.50
2023-03-16T15:07:26.062Z,1.80
2023-03-16T15:10:23.514Z,1.85
2023-03-16T15:13:34.468Z,1.95
2023-03-16T15:16:24.054Z,2.55
2023-03-16T15:19:14.062Z,1.85
2023-03-16T15:22:03.577Z,3.10
2023-03-16T15:24:52.577Z,1.27
2023-03-16T15:27:41.625Z,3.28
2023-03-16T15:30:30.803Z,2.13
2023-03-16T15:33:19.751Z,3.43
2023-03-16T15:36:16.749Z,2.72
2023-03-16T15:39:05.568Z,1.73
2023-03-16T15:41:54.040Z,1.58
2023-03-16T15:44:42.794Z,3.17
2023-03-16T15:47:31.317Z,2.80
2023-03-16T15:50:21.809Z,6.57
2023-03-16T15:53:29.217Z,3.92
2023-03-16T15:56:22.049Z,5.18
2023-03-16T15:59:16.960Z,3.08
2023-03-16T16:02:25.045Z,3.28
2023-03-16T16:05:13.554Z,2.77
2023-03-16T16:08:02.044Z,2.22
2023-03-16T16:10:53.567Z,2.20
2023-03-16T16:13:44.955Z,2.30
2023-03-16T16:16:34.424Z,2.45
2023-03-16T16:19:22.916Z,2.75
2023-03-16T16:22:13.672Z,2.55
2023-03-16T16:25:02.697Z,2.60
2023-03-16T16:27:53.113Z,2.05
2023-03-16T16:30:41.683Z,2.33
2023-03-16T16:33:33.148Z,1.90
2023-03-16T16:36:22.029Z,1.95
2023-03-16T16:39:11.117Z,2.70
2023-03-16T16:41:59.672Z,4.13
2023-03-16T16:44:49.614Z,2.08
2023-03-16T16:47:38.088Z,2.57
2023-03-16T16:50:28.117Z,2.38
2023-03-16T16:53:20.888Z,3.35
2023-03-16T16:56:13.823Z,2.15
2023-03-16T16:59:12.994Z,2.70
2023-03-16T17:02:04.178Z,3.75
2023-03-16T17:04:52.703Z,3.50
2023-03-16T17:07:41.815Z,2.40
2023-03-16T17:10:31.367Z,2.25
2023-03-16T17:13:27.718Z,2.72
2023-03-16T17:16:17.673Z,3.50
2023-03-16T17:19:11.983Z,2.60
2023-03-16T17:22:01.486Z,2.78
2023-03-16T17:24:50.573Z,2.40
2023-03-16T17:27:39.020Z,3.10
2023-03-16T17:30:29.784Z,3.65
2023-03-16T17:33:19.654Z,7.50
2023-03-16T17:36:14.252Z,3.85
2023-03-16T17:39:03.393Z,4.28
2023-03-16T17:41:57.220Z,4.60
2023-03-16T17:44:47.293Z,6.43
2023-03-16T17:47:39.388Z,5.60
2023-03-16T17:50:29.910Z,5.75
2023-03-16T17:53:21.721Z,5.82
2023-03-16T17:56:18.981Z,6.47
2023-03-16T17:59:16.311Z,2.70
2023-03-16T18:02:10.517Z,5.20
2023-03-16T18:05:00.236Z,2.92
2023-03-16T18:07:48.855Z,2.72
2023-03-16T18:10:38.936Z,3.67
2023-03-16T18:13:30.898Z,2.73
2023-03-16T18:16:23.334Z,3.63
2023-03-16T18:19:21.150Z,8.10
2023-03-16T18:22:19.311Z,6.82
2023-03-16T18:25:29.041Z,5.93
2023-03-16T18:28:20.616Z,2.70
2023-03-16T18:31:19.184Z,4.00
2023-03-16T18:34:09.184Z,2.43
2023-03-16T18:36:59.756Z,3.58
2023-03-16T18:39:48.501Z,3.38
2023-03-16T18:42:36.938Z,2.67
2023-03-16T18:45:29.075Z,2.93
2023-03-16T18:48:26.445Z,4.03
2023-03-16T18:51:16.868Z,2.97
2023-03-16T18:54:07.333Z,2.15
2023-03-16T18:56:58.555Z,2.17
2023-03-16T18:59:47.467Z,3.67
2023-03-16T19:02:39.902Z,2.53
2023-03-16T19:05:34.801Z,3.78
2023-03-16T19:08:23.337Z,2.67
2023-03-16T19:11:13.240Z,2.10
2023-03-16T19:14:02.142Z,2.50
2023-03-16T19:16:50.777Z,3.15
2023-03-16T19:19:40.942Z,2.90
2023-03-16T19:22:29.526Z,2.88
2023-03-16T19:25:20.145Z,2.20
2023-03-16T19:28:14.694Z,4.57
2023-03-16T19:31:05.928Z,3.95
2023-03-16T19:33:54.674Z,3.72
2023-03-16T19:36:44.612Z,3.33
2023-03-16T19:39:33.032Z,3.67
2023-03-16T19:42:22.492Z,2.33
2023-03-16T19:45:19.051Z,3.40
2023-03-16T19:48:14.094Z,3.70
2023-03-16T19:51:02.709Z,4.07
2023-03-16T19:53:52.876Z,3.40
2023-03-16T19:56:41.557Z,3.78
2023-03-16T19:59:34.362Z,2.93
2023-03-16T20:02:28.202Z,4.05
2023-03-16T20:05:19.060Z,2.63
2023-03-16T20:08:21.892Z,3.33
2023-03-16T20:11:18.319Z,4.13
2023-03-16T20:14:07.218Z,3.97
2023-03-16T20:16:56.098Z,5.50
2023-03-16T20:19:45.016Z,3.05
2023-03-16T20:22:33.478Z,4.55
2023-03-16T20:25:22.463Z,2.85
2023-03-16T20:28:19.065Z,2.85
2023-03-16T20:31:13.766Z,2.28
2023-03-16T20:34:02.320Z,3.25
2023-03-16T20:36:50.824Z,4.03
2023-03-16T20:39:39.318Z,3.20
2023-03-16T20:42:31.609Z,3.38
2023-03-16T20:45:24.889Z,3.05
2023-03-16T20:48:15.806Z,3.63
2023-03-16T20:51:04.347Z,4.05
2023-03-16T20:53:53.081Z,2.97
2023-03-16T20:56:41.816Z,4.20
2023-03-16T20:59:30.372Z,5.65
2023-03-16T21:02:28.623Z,4.25
2023-03-16T21:05:17.143Z,4.25
2023-03-16T21:08:06.504Z,3.83
2023-03-16T21:10:56.825Z,4.63
2023-03-16T21:13:45.399Z,3.95
2023-03-16T21:16:34.152Z,3.97
2023-03-16T21:19:24.870Z,5.03
2023-03-16T21:22:23.293Z,3.80
2023-03-16T21:25:20.642Z,4.50
2023-03-16T21:28:11.954Z,4.50
2023-03-16T21:31:00.658Z,5.05
2023-03-16T21:33:49.696Z,3.30
2023-03-16T21:36:39.530Z,4.68
2023-03-16T21:39:28.165Z,5.20
2023-03-16T21:42:18.050Z,3.00
2023-03-16T21:45:07.451Z,3.67
2023-03-16T21:47:55.942Z,3.83
2023-03-16T21:50:44.600Z,5.22
2023-03-16T21:53:34.488Z,4.57
2023-03-16T21:56:25.912Z,7.13
2023-03-16T21:59:14.679Z,8.65
2023-03-16T22:02:03.125Z,7.75
2023-03-16T22:04:52.232Z,5.45
2023-03-16T22:07:40.731Z,4.03
2023-03-16T22:10:31.650Z,5.70
2023-03-16T22:13:20.674Z,4.90
2023-03-16T22:16:16.054Z,5.30
2023-03-16T22:19:05.894Z,3.83
2023-03-16T22:21:56.880Z,5.50
2023-03-16T22:24:45.366Z,4.47
2023-03-16T22:27:35.163Z,4.70
2023-03-16T22:30:25.779Z,4.60
2023-03-16T22:33:19.792Z,4.75
2023-03-16T22:36:11.711Z,5.38
2023-03-16T22:39:02.804Z,4.53
2023-03-16T22:41:52.506Z,5.13
2023-03-16T22:44:42.393Z,6.17
2023-03-16T22:47:32.477Z,5.40
2023-03-16T22:50:22.295Z,6.22
2023-03-16T22:53:18.527Z,4.95
2023-03-16T22:56:10.196Z,4.75
2023-03-16T22:59:01.819Z,3.72
2023-03-16T23:01:51.898Z,4.43
2023-03-16T23:04:40.458Z,6.25
2023-03-16T23:07:29.016Z,6.00
2023-03-16T23:10:19.441Z,4.53
2023-03-16T23:13:15.658Z,4.93
2023-03-16T23:16:04.123Z,6.07
2023-03-16T23:18:54.384Z,5.63
2023-03-16T23:21:43.416Z,4.82
2023-03-16T23:24:32.077Z,4.72
2023-03-16T23:27:22.867Z,5.57
2023-03-16T23:30:20.638Z,5.60
2023-03-16T23:33:11.331Z,6.87
2023-03-16T23:36:01.749Z,6.72
2023-03-16T23:38:51.492Z,5.88
2023-03-16T23:41:43.039Z,8.52
2023-03-16T23:44:31.871Z,8.02
2023-03-16T23:47:20.630Z,6.50
2023-03-16T23:50:12.012Z,7.50
2023-03-16T23:53:02.054Z,7.00
2023-03-16T23:55:50.755Z,7.38
2023-03-16T23:58:39.270Z,8.47
